createdAt,value
2018-07-06T06:09:04.382Z,99.90
2018-07-06T06:11:39.402Z,99.90
2018-07-06T06:14:14.359Z,99.90
2018-07-06T06:16:48.536Z,99.90
2018-07-06T06:19:24.778Z,99.90
2018-07-06T06:21:54.427Z,99.90
2018-07-06T06:24:24.363Z,99.90
2018-07-06T06:29:23.292Z,99.90
2018-07-06T06:31:53.943Z,99.90
2018-07-06T06:34:24.161Z,99.90
2018-07-06T06:36:54.763Z,99.90
2018-07-06T06:39:24.571Z,99.90
2018-07-06T06:46:55.126Z,99.90
2018-07-06T06:49:25.343Z,99.90
2018-07-06T06:51:55.897Z,99.90
2018-07-06T06:54:26.283Z,99.90
2018-07-06T06:56:55.827Z,99.90
2018-07-06T07:01:54.601Z,99.90
2018-07-06T07:04:25.053Z,99.90
2018-07-06T07:06:55.745Z,99.90
2018-07-06T07:09:25.539Z,99.90
2018-07-06T07:11:55.493Z,99.90
2018-07-06T07:14:25.295Z,99.90
2018-07-06T07:16:55.227Z,99.90
2018-07-06T07:19:25.192Z,99.90
2018-07-06T07:21:56.793Z,99.90
2018-07-06T07:24:27.575Z,99.90
2018-07-06T07:26:58.835Z,99.90
2018-07-06T07:29:28.828Z,99.90
2018-07-06T07:31:59.362Z,99.90
2018-07-06T07:34:29.426Z,99.90
2018-07-06T07:36:59.109Z,99.90
2018-07-06T07:39:28.987Z,99.90
2018-07-06T07:41:59.657Z,99.90
2018-07-06T07:44:29.518Z,99.90
2018-07-06T07:46:59.207Z,99.90
2018-07-06T07:52:09.980Z,99.90
2018-07-06T07:54:59.859Z,99.90
2018-07-06T07:57:29.672Z,99.90
2018-07-06T08:00:00.281Z,99.90
2018-07-06T08:02:30.683Z,99.90
2018-07-06T08:05:00.826Z,99.90
2018-07-06T08:07:31.302Z,99.90
2018-07-06T08:10:01.204Z,99.90
2018-07-06T08:12:31.802Z,99.90
2018-07-06T08:15:01.474Z,99.90
2018-07-06T08:17:31.284Z,99.90
2018-07-06T08:20:01.115Z,99.90
2018-07-06T08:22:31.855Z,99.90
2018-07-06T08:25:01.578Z,99.90
2018-07-06T08:27:31.642Z,99.90
2018-07-06T08:30:01.448Z,99.90
2018-07-06T08:36:13.924Z,99.90
2018-07-06T08:38:43.750Z,99.90
2018-07-06T08:41:14.068Z,99.90
2018-07-06T08:43:43.646Z,99.90
2018-07-06T08:46:13.696Z,99.90
2018-07-06T08:48:44.046Z,99.90
2018-07-06T08:51:16.349Z,99.90
2018-07-06T08:53:47.365Z,99.90
2018-07-06T08:56:18.377Z,99.90
2018-07-06T08:58:48.769Z,99.90
2018-07-06T09:01:18.902Z,99.90
2018-07-06T09:03:48.740Z,99.90
2018-07-06T09:06:18.891Z,99.90
2018-07-06T09:08:48.702Z,99.90
2018-07-06T09:11:18.429Z,99.90
2018-07-06T09:13:49.781Z,99.90
2018-07-06T09:16:19.559Z,99.90
2018-07-06T09:18:49.905Z,99.90
2018-07-06T09:21:20.398Z,99.90
2018-07-06T09:23:50.316Z,99.90
2018-07-06T09:28:49.667Z,99.90
2018-07-06T09:31:20.079Z,99.90
2018-07-06T09:33:50.712Z,99.90
2018-07-06T09:36:20.392Z,99.90
2018-07-06T09:38:49.976Z,99.90
2018-07-06T09:41:20.186Z,99.90
2018-07-06T09:43:50.876Z,99.90
2018-07-06T09:48:50.684Z,99.90
2018-07-06T09:51:20.440Z,99.90
2018-07-06T09:53:51.151Z,99.90
2018-07-06T09:56:21.644Z,99.90
2018-07-06T09:58:51.440Z,99.90
2018-07-06T10:01:23.569Z,99.90
2018-07-06T10:03:55.266Z,99.90
2018-07-06T10:06:25.686Z,99.90
2018-07-06T10:08:55.672Z,99.90
2018-07-06T10:16:24.544Z,99.70
2018-07-06T10:18:54.400Z,99.90
2018-07-06T10:21:24.186Z,99.90
2018-07-06T10:23:53.695Z,99.10
2018-07-06T10:26:23.927Z,98.50
2018-07-06T10:28:59.916Z,99.90
2018-07-06T10:32:33.225Z,99.30
2018-07-06T10:35:03.008Z,97.40
2018-07-06T10:37:32.543Z,96.00
2018-07-06T10:40:02.322Z,95.00
2018-07-06T10:42:31.659Z,94.70
2018-07-06T10:45:01.155Z,92.90
2018-07-06T10:47:31.244Z,93.00
2018-07-06T10:50:01.909Z,92.50
2018-07-06T11:39:48.410Z,90.60
2018-07-06T11:42:18.142Z,90.30
2018-07-06T11:44:47.616Z,90.20
2018-07-06T11:47:17.362Z,88.50
2018-07-06T11:49:47.550Z,88.40
2018-07-06T11:52:17.396Z,89.70
2018-07-06T11:54:47.316Z,89.40
2018-07-06T11:57:16.916Z,88.10
2018-07-06T11:59:47.044Z,89.60
2018-07-06T12:02:17.508Z,86.80
2018-07-06T12:04:47.148Z,86.80
2018-07-06T12:07:17.361Z,86.10
2018-07-06T12:09:47.766Z,81.60
2018-07-06T12:12:17.180Z,81.50
2018-07-06T12:14:46.631Z,84.20
2018-07-06T12:17:16.517Z,81.80
2018-07-06T12:19:47.041Z,82.90
2018-07-06T12:22:16.755Z,81.20
2018-07-06T12:24:46.246Z,78.00
2018-07-06T12:27:16.191Z,80.60
2018-07-06T12:29:46.103Z,79.00
2018-07-06T12:32:16.221Z,78.80
2018-07-06T12:34:45.795Z,75.60
2018-07-06T12:37:15.447Z,76.60
2018-07-06T12:39:46.109Z,78.70
2018-07-06T12:42:15.793Z,78.10
2018-07-06T12:47:49.037Z,80.40
2018-07-06T12:50:19.031Z,79.90
2018-07-06T12:52:48.679Z,78.80
2018-07-06T12:55:20.987Z,80.00
2018-07-06T12:57:51.461Z,82.40
2018-07-06T13:00:23.215Z,82.10
2018-07-06T13:02:54.950Z,83.20
2018-07-06T13:05:24.598Z,81.20
2018-07-06T13:07:54.261Z,80.10
2018-07-06T13:10:23.740Z,79.00
2018-07-06T13:12:53.668Z,81.10
2018-07-06T13:15:23.197Z,83.70
2018-07-06T13:17:52.964Z,84.80
2018-07-06T13:20:22.313Z,87.10
2018-07-06T13:22:52.200Z,86.90
2018-07-06T13:25:21.873Z,85.50
2018-07-06T13:27:56.732Z,86.10
2018-07-06T13:30:26.211Z,86.60
2018-07-06T13:32:56.497Z,87.10
2018-07-06T13:35:26.646Z,89.30
2018-07-06T13:40:25.241Z,88.40
2018-07-06T13:42:54.874Z,88.70
2018-07-06T13:45:24.254Z,86.90
2018-07-06T13:47:53.928Z,88.30
2018-07-06T13:50:26.858Z,85.00
2018-07-06T13:52:56.985Z,84.40
2018-07-06T13:55:27.393Z,85.60
2018-07-06T13:57:56.781Z,87.60
2018-07-06T14:00:27.670Z,87.40
2018-07-06T14:02:57.735Z,87.60
2018-07-06T14:05:28.354Z,86.70
2018-07-06T14:07:57.844Z,85.60
2018-07-06T14:10:27.298Z,85.60
2018-07-06T14:12:57.084Z,85.70
2018-07-06T14:15:26.680Z,87.00
2018-07-06T14:17:57.919Z,86.90
2018-07-06T14:20:28.300Z,87.90
2018-07-06T14:22:57.955Z,86.10
2018-07-06T14:25:28.391Z,86.90
2018-07-06T14:27:58.105Z,86.20
2018-07-06T14:30:27.881Z,83.60
2018-07-06T14:32:58.257Z,82.70
2018-07-06T14:35:28.345Z,81.00
2018-07-06T14:37:58.623Z,80.80
2018-07-06T14:40:29.333Z,80.80
2018-07-06T14:42:59.787Z,79.90
2018-07-06T14:45:30.543Z,80.10
2018-07-06T14:50:29.789Z,80.80
2018-07-06T14:55:28.955Z,80.70
2018-07-06T14:57:59.999Z,80.40
2018-07-06T15:00:31.517Z,82.20
2018-07-06T15:03:01.584Z,79.80
2018-07-06T15:05:32.365Z,80.90
2018-07-06T15:08:03.434Z,81.40
2018-07-06T15:10:34.291Z,82.40
2018-07-06T15:13:04.443Z,80.10
2018-07-06T15:15:35.013Z,82.30
2018-07-06T15:18:12.347Z,82.00
2018-07-06T15:20:46.839Z,82.40
2018-07-06T15:23:20.178Z,81.30
2018-07-06T15:25:51.579Z,82.20
2018-07-06T15:28:23.078Z,82.50
2018-07-06T15:30:52.996Z,82.70
2018-07-06T15:33:39.070Z,82.80
2018-07-06T15:36:10.613Z,83.50
2018-07-06T15:38:40.562Z,81.90
2018-07-06T15:41:12.748Z,80.90
2018-07-06T15:43:42.698Z,82.40
2018-07-06T15:46:12.682Z,82.10
2018-07-06T15:48:45.666Z,82.20
2018-07-06T15:51:20.130Z,82.30
2018-07-06T15:53:52.580Z,81.30
2018-07-06T15:58:55.796Z,82.90
2018-07-06T16:01:25.585Z,84.10
2018-07-06T16:03:54.968Z,84.90
2018-07-06T16:06:24.470Z,84.90
2018-07-06T16:08:57.590Z,84.30
2018-07-06T16:11:41.117Z,84.60
2018-07-06T16:14:17.230Z,85.50
2018-07-06T16:16:51.652Z,85.90
2018-07-06T16:19:32.250Z,84.50
2018-07-06T16:22:05.220Z,85.60
2018-07-06T16:24:36.914Z,86.50
2018-07-06T16:27:07.507Z,85.20
2018-07-06T16:29:44.145Z,88.80
2018-07-06T16:32:22.640Z,86.10
2018-07-06T16:35:04.826Z,86.10
2018-07-06T16:37:35.596Z,86.80
2018-07-06T16:40:05.353Z,87.20
2018-07-06T16:42:34.790Z,87.40
2018-07-06T16:45:04.827Z,88.20
2018-07-06T16:47:41.376Z,87.70
2018-07-06T16:50:14.561Z,87.50
2018-07-06T16:52:43.969Z,87.60
2018-07-06T16:55:14.230Z,86.70
2018-07-06T16:57:43.595Z,88.00
2018-07-06T17:00:13.013Z,87.10
2018-07-06T17:02:42.197Z,86.00
2018-07-06T17:05:11.701Z,86.00
2018-07-06T17:07:41.026Z,87.60
2018-07-06T17:10:10.383Z,86.80
2018-07-06T17:12:39.984Z,87.90
2018-07-06T17:15:09.759Z,88.70
2018-07-06T17:17:40.471Z,88.80
2018-07-06T17:20:09.843Z,89.00
2018-07-06T17:22:39.078Z,90.00
2018-07-06T17:25:09.727Z,90.20
2018-07-06T17:27:39.217Z,90.80
2018-07-06T17:30:08.981Z,91.10
2018-07-06T17:32:39.888Z,91.60
2018-07-06T17:37:39.919Z,92.20
2018-07-06T17:40:09.720Z,92.30
2018-07-06T17:42:39.777Z,93.00
2018-07-06T17:45:09.268Z,93.50
2018-07-06T17:47:38.942Z,93.80
2018-07-06T17:50:08.511Z,93.70
2018-07-06T17:52:38.596Z,94.10
2018-07-06T17:55:08.246Z,94.40
2018-07-06T17:57:37.811Z,94.40
2018-07-06T18:00:07.976Z,94.70
2018-07-06T18:02:37.619Z,94.60
2018-07-06T18:05:07.410Z,94.90
2018-07-06T18:07:36.947Z,95.00
2018-07-06T18:10:07.126Z,94.90
2018-07-06T18:12:37.238Z,94.90
2018-07-06T18:15:07.421Z,95.20
2018-07-06T18:17:37.428Z,95.20
2018-07-06T18:20:07.257Z,95.50
2018-07-06T18:22:36.753Z,95.90
2018-07-06T18:25:06.806Z,96.00
2018-07-06T18:27:36.968Z,96.00
2018-07-06T18:30:07.069Z,96.00
2018-07-06T18:32:36.410Z,96.30
2018-07-06T18:35:06.547Z,96.40
2018-07-06T18:37:36.147Z,96.60
2018-07-06T18:40:06.836Z,97.30
2018-07-06T18:42:38.376Z,97.40
2018-07-06T18:45:11.491Z,97.60
2018-07-06T18:50:12.030Z,98.50
2018-07-06T18:52:41.724Z,98.90
2018-07-06T18:55:11.259Z,99.10
2018-07-06T18:57:42.587Z,99.60
2018-07-06T19:00:12.397Z,99.60
2018-07-06T19:02:42.874Z,99.90
2018-07-06T19:05:12.861Z,99.90
2018-07-06T19:07:42.557Z,99.90
2018-07-06T19:10:12.150Z,99.90
2018-07-06T19:12:41.841Z,99.90
2018-07-06T19:15:11.504Z,99.90
2018-07-06T19:17:41.863Z,99.90
2018-07-06T19:20:11.747Z,99.90
2018-07-06T19:22:47.129Z,99.90
2018-07-06T19:25:17.292Z,99.90
2018-07-06T19:30:15.668Z,99.90
2018-07-06T19:32:45.462Z,99.90
2018-07-06T19:35:15.304Z,99.90
2018-07-06T19:37:45.496Z,99.90
2018-07-06T19:42:43.777Z,99.90
2018-07-06T19:45:13.320Z,99.90
2018-07-06T19:50:12.720Z,99.90
2018-07-06T19:52:42.117Z,99.90
2018-07-06T19:55:12.200Z,99.90
2018-07-06T19:57:41.805Z,99.90
2018-07-06T20:02:41.127Z,99.90
2018-07-06T20:05:11.188Z,99.90
2018-07-06T20:07:41.047Z,99.90
2018-07-06T20:10:12.753Z,99.90
2018-07-06T20:12:42.525Z,99.90
2018-07-06T20:15:13.478Z,99.90
2018-07-06T20:17:43.780Z,99.90
2018-07-06T20:20:14.743Z,99.90
2018-07-06T20:22:44.890Z,99.90
2018-07-06T20:25:15.185Z,99.90
2018-07-06T20:27:45.264Z,99.90
2018-07-06T20:30:14.913Z,99.90
2018-07-06T20:32:44.355Z,99.90
2018-07-06T20:35:13.855Z,99.90
2018-07-06T20:37:44.471Z,99.90
2018-07-06T20:40:14.077Z,99.90
2018-07-06T20:42:44.213Z,99.90
2018-07-06T20:45:13.707Z,99.90
2018-07-06T20:47:43.243Z,99.90
2018-07-06T20:50:12.590Z,99.90
2018-07-06T20:52:42.117Z,99.90
2018-07-06T20:55:11.663Z,99.90
2018-07-06T20:57:41.275Z,99.90
2018-07-06T21:00:10.669Z,99.90
2018-07-06T21:02:40.358Z,99.90
2018-07-06T21:05:09.923Z,99.90
2018-07-06T21:07:39.543Z,99.90
2018-07-06T21:10:09.449Z,99.90
2018-07-06T21:12:38.889Z,99.90
2018-07-06T21:15:08.659Z,99.90
2018-07-06T21:17:38.259Z,99.90
2018-07-06T21:20:07.926Z,99.90
2018-07-06T21:22:38.164Z,99.90
2018-07-06T21:25:09.850Z,99.90
2018-07-06T21:27:39.515Z,99.90
2018-07-06T21:30:08.949Z,99.90
2018-07-06T21:32:39.052Z,99.90
2018-07-06T21:35:08.748Z,99.90
2018-07-06T21:37:38.378Z,99.90
2018-07-06T21:40:07.858Z,99.90
2018-07-06T21:42:37.265Z,99.90
2018-07-06T21:45:07.089Z,99.90
2018-07-06T21:47:37.306Z,99.90
2018-07-06T21:50:07.046Z,99.90
2018-07-06T21:52:36.940Z,99.90
2018-07-06T21:55:06.370Z,99.90
2018-07-06T21:57:35.770Z,99.90
2018-07-06T22:00:05.378Z,99.90
2018-07-06T22:02:35.090Z,99.90
2018-07-06T22:05:04.777Z,99.90
2018-07-06T22:07:34.216Z,99.90
2018-07-06T22:10:06.264Z,99.90
2018-07-06T22:12:36.505Z,99.90
2018-07-06T22:15:06.217Z,99.90
2018-07-06T22:17:35.726Z,99.90
2018-07-06T22:20:06.153Z,99.90
2018-07-06T22:22:35.602Z,99.90
2018-07-06T22:25:04.946Z,99.90
2018-07-06T22:27:34.605Z,99.90
2018-07-06T22:30:04.944Z,99.90
2018-07-06T22:32:34.267Z,99.90
2018-07-06T22:37:32.597Z,99.90
2018-07-06T22:40:02.361Z,99.90
2018-07-06T22:42:32.295Z,99.90
2018-07-06T22:45:01.797Z,99.90
2018-07-06T22:47:31.321Z,99.90
2018-07-06T22:50:00.744Z,99.90
2018-07-06T22:52:30.752Z,99.90
2018-07-06T22:55:00.238Z,99.90
2018-07-06T22:57:29.585Z,99.90
2018-07-06T22:59:59.311Z,99.90
2018-07-06T23:02:29.065Z,99.90
2018-07-06T23:07:29.223Z,99.90
2018-07-06T23:10:00.006Z,99.90
2018-07-06T23:12:29.393Z,99.90
2018-07-06T23:14:59.104Z,99.90
2018-07-06T23:17:29.192Z,99.90
2018-07-06T23:19:58.949Z,99.90
2018-07-06T23:23:07.957Z,99.90
2018-07-06T23:25:39.100Z,99.90
2018-07-06T23:28:08.624Z,99.90
2018-07-06T23:30:38.090Z,99.90
2018-07-06T23:33:08.920Z,99.90
2018-07-06T23:35:38.608Z,99.90
2018-07-06T23:38:08.982Z,99.90
2018-07-06T23:40:38.397Z,99.90
2018-07-06T23:43:07.813Z,99.90
2018-07-06T23:45:37.461Z,99.90
2018-07-06T23:48:07.085Z,99.90
2018-07-06T23:50:36.726Z,99.90
2018-07-06T23:53:06.445Z,99.90
2018-07-06T23:55:36.594Z,99.90
2018-07-06T23:58:06.309Z,99.90
